sensor_id;sensor_type;location;lat;lon;timestamp;pressure;altitude;pressure_sealevel;temperature;humidity
8585;BME280;7180;52.742;11.420;2023-02-18T00:01:00;100148.31;;;5.64;91.28
8585;BME280;7180;52.742;11.420;2023-02-18T00:03:27;100124.53;;;5.51;91.03
8585;BME280;7180;52.742;11.420;2023-02-18T00:05:53;100194.28;;;5.66;91.88
8585;BME280;7180;52.742;11.420;2023-02-18T00:08:18;100193.22;;;5.70;91.45
8585;BME280;7180;52.742;11.420;2023-02-18T00:10:44;100205.91;;;5.78;91.72
8585;BME280;7180;52.742;11.420;2023-02-18T00:13:09;100170.56;;;5.71;91.31
8585;BME280;7180;52.742;11.420;2023-02-18T00:15:36;100151.69;;;5.66;91.24
8585;BME280;7180;52.742;11.420;2023-02-18T00:18:01;100151.69;;;5.66;91.61
8585;BME280;7180;52.742;11.420;2023-02-18T00:20:27;100158.88;;;5.61;91.80
8585;BME280;7180;52.742;11.420;2023-02-18T00:22:52;100174.59;;;5.59;91.87
8585;BME280;7180;52.742;11.420;2023-02-18T00:25:17;100186.94;;;5.56;91.85
8585;BME280;7180;52.742;11.420;2023-02-18T00:27:42;100185.63;;;5.46;92.11
8585;BME280;7180;52.742;11.420;2023-02-18T00:30:08;100207.34;;;5.46;92.25
8585;BME280;7180;52.742;11.420;2023-02-18T00:32:34;100232.38;;;5.50;92.36
8585;BME280;7180;52.742;11.420;2023-02-18T00:34:59;100255.00;;;5.50;92.22
8585;BME280;7180;52.742;11.420;2023-02-18T00:37:24;100253.03;;;5.55;92.04
8585;BME280;7180;52.742;11.420;2023-02-18T00:39:49;100234.97;;;5.50;92.49
8585;BME280;7180;52.742;11.420;2023-02-18T00:42:15;100223.94;;;5.44;92.31
8585;BME280;7180;52.742;11.420;2023-02-18T00:44:40;100244.81;;;5.44;92.27
8585;BME280;7180;52.742;11.420;2023-02-18T00:47:05;100256.16;;;5.43;92.32
8585;BME280;7180;52.742;11.420;2023-02-18T00:49:31;100271.56;;;5.49;92.69
8585;BME280;7180;52.742;11.420;2023-02-18T00:51:56;100284.47;;;5.52;92.72
8585;BME280;7180;52.742;11.420;2023-02-18T00:54:21;100259.56;;;5.45;92.32
8585;BME280;7180;52.742;11.420;2023-02-18T00:56:46;100261.25;;;5.46;92.29
8585;BME280;7180;52.742;11.420;2023-02-18T00:59:12;100289.53;;;5.55;92.23
8585;BME280;7180;52.742;11.420;2023-02-18T01:01:37;100249.13;;;5.45;92.15
8585;BME280;7180;52.742;11.420;2023-02-18T01:04:02;100250.63;;;5.50;92.44
8585;BME280;7180;52.742;11.420;2023-02-18T01:06:27;100248.09;;;5.49;92.16
8585;BME280;7180;52.742;11.420;2023-02-18T01:08:53;100238.41;;;5.51;92.09
8585;BME280;7180;52.742;11.420;2023-02-18T01:11:18;100210.72;;;5.48;92.37
8585;BME280;7180;52.742;11.420;2023-02-18T01:13:43;100194.31;;;5.46;92.20
8585;BME280;7180;52.742;11.420;2023-02-18T01:16:09;100223.56;;;5.53;92.19
8585;BME280;7180;52.742;11.420;2023-02-18T01:18:35;100206.88;;;5.57;91.80
8585;BME280;7180;52.742;11.420;2023-02-18T01:21:01;100182.53;;;5.56;91.76
8585;BME280;7180;52.742;11.420;2023-02-18T01:23:27;100162.09;;;5.47;91.25
8585;BME280;7180;52.742;11.420;2023-02-18T01:25:53;100197.63;;;5.50;91.68
8585;BME280;7180;52.742;11.420;2023-02-18T01:28:18;100179.38;;;5.50;91.36
8585;BME280;7180;52.742;11.420;2023-02-18T01:30:45;100180.00;;;5.55;91.05
8585;BME280;7180;52.742;11.420;2023-02-18T01:33:10;100141.66;;;5.57;90.74
8585;BME280;7180;52.742;11.420;2023-02-18T01:35:38;100126.66;;;5.62;90.88
8585;BME280;7180;52.742;11.420;2023-02-18T01:38:04;100098.63;;;5.67;90.50
8585;BME280;7180;52.742;11.420;2023-02-18T01:40:29;100063.94;;;5.65;89.96
8585;BME280;7180;52.742;11.420;2023-02-18T01:42:55;100056.13;;;5.65;89.86
8585;BME280;7180;52.742;11.420;2023-02-18T01:48:30;100035.97;;;5.68;89.95
8585;BME280;7180;52.742;11.420;2023-02-18T01:53:43;100014.31;;;5.66;89.13
8585;BME280;7180;52.742;11.420;2023-02-18T01:56:19;99996.13;;;5.65;89.54
8585;BME280;7180;52.742;11.420;2023-02-18T01:58:47;99976.19;;;5.64;88.95
8585;BME280;7180;52.742;11.420;2023-02-18T02:01:13;99984.78;;;5.66;89.34
8585;BME280;7180;52.742;11.420;2023-02-18T02:03:38;99980.69;;;5.60;89.10
8585;BME280;7180;52.742;11.420;2023-02-18T02:06:11;99999.03;;;5.59;89.14
8585;BME280;7180;52.742;11.420;2023-02-18T02:08:38;99989.53;;;5.58;89.08
8585;BME280;7180;52.742;11.420;2023-02-18T02:11:28;100018.69;;;5.66;89.43
8585;BME280;7180;52.742;11.420;2023-02-18T02:16:51;100023.28;;;5.61;89.10
8585;BME280;7180;52.742;11.420;2023-02-18T02:33:42;100051.59;;;5.50;89.87
8585;BME280;7180;52.742;11.420;2023-02-18T02:36:15;100096.88;;;5.49;89.85
8585;BME280;7180;52.742;11.420;2023-02-18T02:41:51;100116.22;;;5.62;89.79
8585;BME280;7180;52.742;11.420;2023-02-18T02:44:31;100117.63;;;5.69;89.60
8585;BME280;7180;52.742;11.420;2023-02-18T02:47:25;100080.66;;;5.61;89.53
8585;BME280;7180;52.742;11.420;2023-02-18T02:52:47;100117.56;;;5.52;90.38
8585;BME280;7180;52.742;11.420;2023-02-18T02:55:14;100153.94;;;5.55;90.28
8585;BME280;7180;52.742;11.420;2023-02-18T02:57:45;100159.28;;;5.52;90.62
8585;BME280;7180;52.742;11.420;2023-02-18T03:00:13;100180.06;;;5.53;90.96
8585;BME280;7180;52.742;11.420;2023-02-18T03:08:07;100195.78;;;5.52;91.02
8585;BME280;7180;52.742;11.420;2023-02-18T03:10:53;100212.22;;;5.54;90.48
8585;BME280;7180;52.742;11.420;2023-02-18T03:13:46;100222.59;;;5.55;90.76
8585;BME280;7180;52.742;11.420;2023-02-18T03:16:34;100194.09;;;5.51;91.11
8585;BME280;7180;52.742;11.420;2023-02-18T03:19:21;100217.81;;;5.65;90.69
8585;BME280;7180;52.742;11.420;2023-02-18T03:24:41;100191.81;;;5.82;90.38
8585;BME280;7180;52.742;11.420;2023-02-18T03:27:15;100135.34;;;5.81;90.08
8585;BME280;7180;52.742;11.420;2023-02-18T03:29:44;100095.44;;;5.79;90.08
8585;BME280;7180;52.742;11.420;2023-02-18T03:32:12;100066.81;;;5.77;89.89
8585;BME280;7180;52.742;11.420;2023-02-18T03:34:43;100021.00;;;5.72;89.59
8585;BME280;7180;52.742;11.420;2023-02-18T03:37:10;99995.50;;;5.60;89.27
8585;BME280;7180;52.742;11.420;2023-02-18T03:39:40;100055.97;;;5.68;89.79
8585;BME280;7180;52.742;11.420;2023-02-18T03:42:07;100016.50;;;5.57;89.59
8585;BME280;7180;52.742;11.420;2023-02-18T03:44:32;100061.19;;;5.68;89.62
8585;BME280;7180;52.742;11.420;2023-02-18T03:46:57;100051.59;;;5.68;89.40
8585;BME280;7180;52.742;11.420;2023-02-18T03:49:23;100046.72;;;5.79;89.42
8585;BME280;7180;52.742;11.420;2023-02-18T03:51:48;100004.91;;;5.81;88.89
8585;BME280;7180;52.742;11.420;2023-02-18T03:54:14;100016.63;;;5.91;88.85
8585;BME280;7180;52.742;11.420;2023-02-18T03:56:39;100022.50;;;6.13;88.68
8585;BME280;7180;52.742;11.420;2023-02-18T03:59:04;99950.34;;;6.12;87.92
8585;BME280;7180;52.742;11.420;2023-02-18T04:01:30;99892.69;;;6.16;87.61
8585;BME280;7180;52.742;11.420;2023-02-18T04:03:55;99886.13;;;6.25;87.59
8585;BME280;7180;52.742;11.420;2023-02-18T04:06:24;99837.59;;;6.21;86.98
8585;BME280;7180;52.742;11.420;2023-02-18T04:08:49;99819.97;;;6.26;86.91
8585;BME280;7180;52.742;11.420;2023-02-18T04:11:15;99788.00;;;6.21;86.96
8585;BME280;7180;52.742;11.420;2023-02-18T04:13:40;99759.31;;;6.21;86.54
8585;BME280;7180;52.742;11.420;2023-02-18T04:16:06;99770.94;;;6.31;86.30
8585;BME280;7180;52.742;11.420;2023-02-18T04:18:31;99727.84;;;6.24;86.52
8585;BME280;7180;52.742;11.420;2023-02-18T04:20:57;99776.19;;;6.31;86.76
8585;BME280;7180;52.742;11.420;2023-02-18T04:23:22;99729.38;;;6.28;86.13
8585;BME280;7180;52.742;11.420;2023-02-18T04:25:47;99772.47;;;6.35;86.22
8585;BME280;7180;52.742;11.420;2023-02-18T04:28:14;99781.31;;;6.48;86.39
8585;BME280;7180;52.742;11.420;2023-02-18T04:30:43;99787.72;;;6.58;86.06
8585;BME280;7180;52.742;11.420;2023-02-18T04:33:10;99710.66;;;6.51;85.71
8585;BME280;7180;52.742;11.420;2023-02-18T04:35:35;99716.38;;;6.58;85.71
8585;BME280;7180;52.742;11.420;2023-02-18T04:38:02;99686.63;;;6.60;85.57
8585;BME280;7180;52.742;11.420;2023-02-18T04:40:27;99678.13;;;6.57;85.56
8585;BME280;7180;52.742;11.420;2023-02-18T04:42:56;99659.09;;;6.55;85.39
8585;BME280;7180;52.742;11.420;2023-02-18T04:45:21;99663.66;;;6.51;85.42
8585;BME280;7180;52.742;11.420;2023-02-18T04:47:47;99672.41;;;6.50;85.88
8585;BME280;7180;52.742;11.420;2023-02-18T04:50:12;99690.63;;;6.52;85.74
8585;BME280;7180;52.742;11.420;2023-02-18T04:52:37;99720.16;;;6.68;85.62
8585;BME280;7180;52.742;11.420;2023-02-18T04:55:03;99694.63;;;6.73;85.66
8585;BME280;7180;52.742;11.420;2023-02-18T04:57:28;99643.75;;;6.64;85.31
8585;BME280;7180;52.742;11.420;2023-02-18T04:59:53;99637.78;;;6.62;85.33
8585;BME280;7180;52.742;11.420;2023-02-18T05:02:19;99632.38;;;6.65;85.72
8585;BME280;7180;52.742;11.420;2023-02-18T05:04:44;99634.78;;;6.68;85.53
8585;BME280;7180;52.742;11.420;2023-02-18T05:07:09;99610.16;;;6.58;85.08
8585;BME280;7180;52.742;11.420;2023-02-18T05:09:34;99618.63;;;6.62;85.67
8585;BME280;7180;52.742;11.420;2023-02-18T05:11:59;99661.66;;;6.70;85.32
8585;BME280;7180;52.742;11.420;2023-02-18T05:14:25;99621.69;;;6.54;85.41
8585;BME280;7180;52.742;11.420;2023-02-18T05:16:50;99664.00;;;6.45;86.31
8585;BME280;7180;52.742;11.420;2023-02-18T05:19:15;99734.41;;;6.47;86.29
8585;BME280;7180;52.742;11.420;2023-02-18T05:21:41;99769.63;;;6.55;86.67
8585;BME280;7180;52.742;11.420;2023-02-18T05:24:07;99742.09;;;6.50;86.40
8585;BME280;7180;52.742;11.420;2023-02-18T05:26:33;99783.91;;;6.48;87.05
8585;BME280;7180;52.742;11.420;2023-02-18T05:28:59;99861.78;;;6.57;86.94
8585;BME280;7180;52.742;11.420;2023-02-18T05:31:24;99823.19;;;6.47;87.26
8585;BME280;7180;52.742;11.420;2023-02-18T05:33:49;99859.66;;;6.48;87.44
8585;BME280;7180;52.742;11.420;2023-02-18T05:36:15;99889.97;;;6.68;86.88
8585;BME280;7180;52.742;11.420;2023-02-18T05:38:40;99814.63;;;6.60;87.18
8585;BME280;7180;52.742;11.420;2023-02-18T05:41:05;99832.72;;;6.63;87.13
8585;BME280;7180;52.742;11.420;2023-02-18T05:43:31;99802.91;;;6.67;87.04
8585;BME280;7180;52.742;11.420;2023-02-18T05:46:16;99776.78;;;6.67;86.63
8585;BME280;7180;52.742;11.420;2023-02-18T05:48:41;99837.22;;;6.77;87.10
8585;BME280;7180;52.742;11.420;2023-02-18T05:51:06;99802.50;;;6.75;87.21
8585;BME280;7180;52.742;11.420;2023-02-18T05:53:32;99759.69;;;6.62;86.79
8585;BME280;7180;52.742;11.420;2023-02-18T05:55:57;99780.00;;;6.57;87.19
8585;BME280;7180;52.742;11.420;2023-02-18T05:58:22;99809.66;;;6.71;87.25
8585;BME280;7180;52.742;11.420;2023-02-18T06:00:47;99788.25;;;6.80;86.68
8585;BME280;7180;52.742;11.420;2023-02-18T06:03:13;99779.88;;;6.89;86.96
8585;BME280;7180;52.742;11.420;2023-02-18T06:05:38;99706.66;;;6.75;86.34
8585;BME280;7180;52.742;11.420;2023-02-18T06:08:03;99742.97;;;6.80;86.66
8585;BME280;7180;52.742;11.420;2023-02-18T06:10:29;99721.22;;;6.79;86.29
8585;BME280;7180;52.742;11.420;2023-02-18T06:12:54;99715.09;;;6.80;86.66
8585;BME280;7180;52.742;11.420;2023-02-18T06:15:19;99702.47;;;6.73;86.66
8585;BME280;7180;52.742;11.420;2023-02-18T06:17:44;99734.28;;;6.79;86.81
8585;BME280;7180;52.742;11.420;2023-02-18T06:20:10;99770.88;;;6.79;87.02
8585;BME280;7180;52.742;11.420;2023-02-18T06:22:35;99761.19;;;6.81;86.83
8585;BME280;7180;52.742;11.420;2023-02-18T06:25:01;99747.44;;;6.78;87.02
8585;BME280;7180;52.742;11.420;2023-02-18T06:27:26;99756.38;;;6.74;86.79
8585;BME280;7180;52.742;11.420;2023-02-18T06:29:51;99792.81;;;6.77;87.21
8585;BME280;7180;52.742;11.420;2023-02-18T06:32:16;99805.78;;;6.78;87.58
8585;BME280;7180;52.742;11.420;2023-02-18T06:34:42;99845.78;;;6.79;87.44
8585;BME280;7180;52.742;11.420;2023-02-18T06:37:07;99903.03;;;6.83;87.75
8585;BME280;7180;52.742;11.420;2023-02-18T06:39:32;99911.94;;;6.79;88.04
8585;BME280;7180;52.742;11.420;2023-02-18T06:41:57;99963.88;;;6.85;88.26
8585;BME280;7180;52.742;11.420;2023-02-18T06:44:24;99961.59;;;6.79;88.89
8585;BME280;7180;52.742;11.420;2023-02-18T06:46:49;99996.63;;;6.75;88.78
8585;BME280;7180;52.742;11.420;2023-02-18T06:49:14;100032.22;;;6.78;89.27
8585;BME280;7180;52.742;11.420;2023-02-18T06:51:39;100100.22;;;6.76;90.12
8585;BME280;7180;52.742;11.420;2023-02-18T06:54:05;100121.75;;;6.81;89.90
8585;BME280;7180;52.742;11.420;2023-02-18T06:56:30;100121.34;;;6.72;90.61
8585;BME280;7180;52.742;11.420;2023-02-18T06:58:56;100199.44;;;6.78;91.24
8585;BME280;7180;52.742;11.420;2023-02-18T07:01:21;100209.13;;;6.76;91.92
8585;BME280;7180;52.742;11.420;2023-02-18T07:03:46;100250.72;;;6.80;91.91
8585;BME280;7180;52.742;11.420;2023-02-18T07:06:12;100253.69;;;6.73;92.13
8585;BME280;7180;52.742;11.420;2023-02-18T07:08:37;100276.19;;;6.75;92.45
8585;BME280;7180;52.742;11.420;2023-02-18T07:11:03;100289.94;;;6.79;92.35
8585;BME280;7180;52.742;11.420;2023-02-18T07:13:28;100295.19;;;6.79;92.56
8585;BME280;7180;52.742;11.420;2023-02-18T07:15:54;100303.78;;;6.81;92.80
8585;BME280;7180;52.742;11.420;2023-02-18T07:18:19;100329.44;;;6.91;93.29
8585;BME280;7180;52.742;11.420;2023-02-18T07:20:44;100324.91;;;6.95;93.36
8585;BME280;7180;52.742;11.420;2023-02-18T07:23:10;100316.50;;;6.88;93.28
8585;BME280;7180;52.742;11.420;2023-02-18T07:25:35;100307.88;;;6.86;93.28
8585;BME280;7180;52.742;11.420;2023-02-18T07:28:00;100308.81;;;6.85;93.11
8585;BME280;7180;52.742;11.420;2023-02-18T07:30:26;100331.38;;;7.05;93.69
8585;BME280;7180;52.742;11.420;2023-02-18T07:32:51;100296.88;;;6.98;93.37
8585;BME280;7180;52.742;11.420;2023-02-18T07:35:17;100320.00;;;7.06;93.55
8585;BME280;7180;52.742;11.420;2023-02-18T07:37:44;100303.16;;;6.94;93.61
8585;BME280;7180;52.742;11.420;2023-02-18T07:40:12;100351.25;;;6.90;94.46
8585;BME280;7180;52.742;11.420;2023-02-18T07:42:37;100380.16;;;6.87;94.60
8585;BME280;7180;52.742;11.420;2023-02-18T07:45:03;100414.94;;;6.88;95.44
8585;BME280;7180;52.742;11.420;2023-02-18T07:47:28;100430.63;;;6.88;95.94
8585;BME280;7180;52.742;11.420;2023-02-18T07:49:53;100458.91;;;6.80;96.23
8585;BME280;7180;52.742;11.420;2023-02-18T07:52:19;100478.84;;;6.82;96.83
8585;BME280;7180;52.742;11.420;2023-02-18T07:54:44;100527.94;;;6.94;97.36
8585;BME280;7180;52.742;11.420;2023-02-18T07:57:09;100493.66;;;6.82;97.69
8585;BME280;7180;52.742;11.420;2023-02-18T07:59:34;100522.88;;;6.71;98.57
8585;BME280;7180;52.742;11.420;2023-02-18T08:02:00;100556.06;;;6.69;99.54
8585;BME280;7180;52.742;11.420;2023-02-18T08:04:25;100587.97;;;6.76;99.99
8585;BME280;7180;52.742;11.420;2023-02-18T08:06:51;100593.34;;;6.73;100.00
8585;BME280;7180;52.742;11.420;2023-02-18T08:09:16;100612.59;;;6.70;100.00
8585;BME280;7180;52.742;11.420;2023-02-18T08:11:42;100631.03;;;6.67;100.00
8585;BME280;7180;52.742;11.420;2023-02-18T08:14:07;100657.41;;;6.61;100.00
8585;BME280;7180;52.742;11.420;2023-02-18T08:16:33;100665.19;;;6.63;100.00
8585;BME280;7180;52.742;11.420;2023-02-18T08:18:59;100682.28;;;6.70;100.00
8585;BME280;7180;52.742;11.420;2023-02-18T08:21:25;100674.91;;;6.59;100.00
8585;BME280;7180;52.742;11.420;2023-02-18T08:23:51;100696.53;;;6.63;100.00
8585;BME280;7180;52.742;11.420;2023-02-18T08:26:17;100720.75;;;6.66;100.00
8585;BME280;7180;52.742;11.420;2023-02-18T08:28:43;100729.94;;;6.76;100.00
8585;BME280;7180;52.742;11.420;2023-02-18T08:31:17;100730.53;;;6.83;100.00
8585;BME280;7180;52.742;11.420;2023-02-18T08:33:43;100715.38;;;6.71;100.00
8585;BME280;7180;52.742;11.420;2023-02-18T08:36:08;100726.47;;;6.76;100.00
8585;BME280;7180;52.742;11.420;2023-02-18T08:38:34;100731.63;;;6.77;100.00
8585;BME280;7180;52.742;11.420;2023-02-18T08:41:02;100737.59;;;6.81;100.00
8585;BME280;7180;52.742;11.420;2023-02-18T08:43:28;100737.00;;;6.74;100.00
8585;BME280;7180;52.742;11.420;2023-02-18T08:45:53;100739.53;;;6.76;100.00
8585;BME280;7180;52.742;11.420;2023-02-18T08:48:18;100743.66;;;6.81;100.00
8585;BME280;7180;52.742;11.420;2023-02-18T08:50:44;100745.41;;;6.82;100.00
8585;BME280;7180;52.742;11.420;2023-02-18T08:53:09;100743.66;;;6.81;100.00
8585;BME280;7180;52.742;11.420;2023-02-18T08:55:34;100738.31;;;6.84;100.00
8585;BME280;7180;52.742;11.420;2023-02-18T08:58:03;100733.22;;;6.81;100.00
8585;BME280;7180;52.742;11.420;2023-02-18T09:00:29;100742.56;;;6.87;100.00
8585;BME280;7180;52.742;11.420;2023-02-18T09:02:54;100733.41;;;6.98;100.00
8585;BME280;7180;52.742;11.420;2023-02-18T09:05:19;100725.72;;;6.94;100.00
8585;BME280;7180;52.742;11.420;2023-02-18T09:07:44;100722.16;;;6.96;100.00
8585;BME280;7180;52.742;11.420;2023-02-18T09:10:10;100724.69;;;6.98;100.00
8585;BME280;7180;52.742;11.420;2023-02-18T09:12:35;100721.69;;;7.07;100.00
8585;BME280;7180;52.742;11.420;2023-02-18T09:15:01;100707.66;;;7.09;100.00
8585;BME280;7180;52.742;11.420;2023-02-18T09:17:26;100701.88;;;7.01;100.00
8585;BME280;7180;52.742;11.420;2023-02-18T09:19:52;100701.56;;;7.09;100.00
8585;BME280;7180;52.742;11.420;2023-02-18T09:22:18;100691.19;;;7.07;100.00
8585;BME280;7180;52.742;11.420;2023-02-18T09:24:43;100693.00;;;7.25;100.00
8585;BME280;7180;52.742;11.420;2023-02-18T09:27:09;100675.41;;;7.29;100.00
8585;BME280;7180;52.742;11.420;2023-02-18T09:29:37;100669.56;;;7.43;100.00
8585;BME280;7180;52.742;11.420;2023-02-18T09:32:03;100666.75;;;7.66;100.00
8585;BME280;7180;52.742;11.420;2023-02-18T09:34:28;100665.09;;;7.65;100.00
8585;BME280;7180;52.742;11.420;2023-02-18T09:36:54;100658.13;;;7.64;100.00
8585;BME280;7180;52.742;11.420;2023-02-18T09:39:19;100642.00;;;7.73;100.00
8585;BME280;7180;52.742;11.420;2023-02-18T09:41:54;100622.84;;;7.54;100.00
8585;BME280;7180;52.742;11.420;2023-02-18T09:44:28;100624.13;;;7.45;100.00
8585;BME280;7180;52.742;11.420;2023-02-18T09:47:02;100621.69;;;7.41;100.00
8585;BME280;7180;52.742;11.420;2023-02-18T09:49:35;100629.31;;;7.26;100.00
8585;BME280;7180;52.742;11.420;2023-02-18T09:52:06;100631.59;;;7.34;100.00
8585;BME280;7180;52.742;11.420;2023-02-18T09:54:35;100626.69;;;7.26;100.00
8585;BME280;7180;52.742;11.420;2023-02-18T09:57:02;100634.22;;;7.34;100.00
8585;BME280;7180;52.742;11.420;2023-02-18T09:59:29;100629.94;;;7.31;100.00
8585;BME280;7180;52.742;11.420;2023-02-18T10:01:55;100632.94;;;7.43;100.00
8585;BME280;7180;52.742;11.420;2023-02-18T10:04:26;100625.09;;;7.43;100.00
8585;BME280;7180;52.742;11.420;2023-02-18T10:06:55;100617.50;;;7.36;100.00
8585;BME280;7180;52.742;11.420;2023-02-18T10:09:27;100604.69;;;7.51;100.00
8585;BME280;7180;52.742;11.420;2023-02-18T10:11:56;100594.94;;;7.54;100.00
8585;BME280;7180;52.742;11.420;2023-02-18T10:14:23;100600.72;;;7.61;100.00
8585;BME280;7180;52.742;11.420;2023-02-18T10:16:51;100599.66;;;7.65;100.00
8585;BME280;7180;52.742;11.420;2023-02-18T10:19:33;100588.84;;;7.72;100.00
8585;BME280;7180;52.742;11.420;2023-02-18T10:22:01;100580.47;;;7.83;100.00
8585;BME280;7180;52.742;11.420;2023-02-18T10:24:58;100573.88;;;7.93;100.00
8585;BME280;7180;52.742;11.420;2023-02-18T10:27:26;100584.94;;;8.16;100.00
8585;BME280;7180;52.742;11.420;2023-02-18T10:29:53;100564.06;;;8.33;100.00
8585;BME280;7180;52.742;11.420;2023-02-18T10:32:32;100559.19;;;8.43;100.00
8585;BME280;7180;52.742;11.420;2023-02-18T10:35:16;100550.84;;;8.52;100.00
8585;BME280;7180;52.742;11.420;2023-02-18T10:40:57;100540.38;;;8.69;100.00
8585;BME280;7180;52.742;11.420;2023-02-18T10:46:20;100523.69;;;8.87;100.00
8585;BME280;7180;52.742;11.420;2023-02-18T10:49:05;100513.31;;;9.01;100.00
8585;BME280;7180;52.742;11.420;2023-02-18T10:51:39;100515.22;;;9.15;100.00
8585;BME280;7180;52.742;11.420;2023-02-18T10:54:09;100511.16;;;9.25;100.00
8585;BME280;7180;52.742;11.420;2023-02-18T10:56:41;100499.16;;;9.36;100.00
8585;BME280;7180;52.742;11.420;2023-02-18T10:59:20;100493.00;;;9.53;100.00
8585;BME280;7180;52.742;11.420;2023-02-18T11:01:54;100487.66;;;9.55;100.00
8585;BME280;7180;52.742;11.420;2023-02-18T11:04:25;100480.03;;;9.66;100.00
8585;BME280;7180;52.742;11.420;2023-02-18T11:06:51;100484.44;;;9.95;100.00
8585;BME280;7180;52.742;11.420;2023-02-18T11:09:47;100474.31;;;10.18;100.00
8585;BME280;7180;52.742;11.420;2023-02-18T11:12:18;100447.59;;;10.12;100.00
8585;BME280;7180;52.742;11.420;2023-02-18T11:14:47;100458.41;;;10.21;100.00
8585;BME280;7180;52.742;11.420;2023-02-18T11:17:27;100427.69;;;10.22;100.00
8585;BME280;7180;52.742;11.420;2023-02-18T11:19:59;100433.06;;;10.34;100.00
8585;BME280;7180;52.742;11.420;2023-02-18T11:22:34;100405.75;;;10.37;100.00
8585;BME280;7180;52.742;11.420;2023-02-18T11:25:21;100397.13;;;10.35;100.00
8585;BME280;7180;52.742;11.420;2023-02-18T11:27:54;100394.69;;;10.46;100.00
8585;BME280;7180;52.742;11.420;2023-02-18T11:30:23;100385.03;;;10.61;100.00
8585;BME280;7180;52.742;11.420;2023-02-18T11:35:54;100369.38;;;11.00;100.00
8585;BME280;7180;52.742;11.420;2023-02-18T11:38:42;100343.34;;;11.09;100.00
8585;BME280;7180;52.742;11.420;2023-02-18T11:41:14;100339.25;;;11.18;100.00
8585;BME280;7180;52.742;11.420;2023-02-18T11:43:42;100315.28;;;11.22;100.00
8585;BME280;7180;52.742;11.420;2023-02-18T11:46:13;100320.06;;;11.30;100.00
8585;BME280;7180;52.742;11.420;2023-02-18T11:48:39;100295.53;;;11.29;100.00
8585;BME280;7180;52.742;11.420;2023-02-18T11:51:07;100298.59;;;11.48;100.00
8585;BME280;7180;52.742;11.420;2023-02-18T11:53:38;100267.84;;;11.36;100.00
8585;BME280;7180;52.742;11.420;2023-02-18T11:56:14;100269.72;;;11.34;100.00
8585;BME280;7180;52.742;11.420;2023-02-18T11:58:43;100253.28;;;11.18;100.00
8585;BME280;7180;52.742;11.420;2023-02-18T12:01:35;100261.34;;;11.03;100.00
8585;BME280;7180;52.742;11.420;2023-02-18T12:04:13;100267.25;;;11.06;100.00
8585;BME280;7180;52.742;11.420;2023-02-18T12:09:42;100283.94;;;11.05;100.00
8585;BME280;7180;52.742;11.420;2023-02-18T12:12:15;100292.59;;;11.07;100.00
8585;BME280;7180;52.742;11.420;2023-02-18T12:14:42;100291.91;;;10.91;100.00
8585;BME280;7180;52.742;11.420;2023-02-18T12:17:40;100309.19;;;10.95;100.00
8585;BME280;7180;52.742;11.420;2023-02-18T12:20:26;100302.06;;;10.83;100.00
8585;BME280;7180;52.742;11.420;2023-02-18T12:26:04;100328.72;;;10.91;100.00
8585;BME280;7180;52.742;11.420;2023-02-18T12:48:44;100336.72;;;10.90;100.00
8585;BME280;7180;52.742;11.420;2023-02-18T12:54:25;100333.44;;;10.86;100.00
8585;BME280;7180;52.742;11.420;2023-02-18T12:57:35;100315.19;;;10.83;100.00
8585;BME280;7180;52.742;11.420;2023-02-18T13:03:26;100287.94;;;10.98;100.00
8585;BME280;7180;52.742;11.420;2023-02-18T13:09:07;100280.31;;;10.81;100.00
8585;BME280;7180;52.742;11.420;2023-02-18T13:11:52;100280.69;;;10.75;100.00
8585;BME280;7180;52.742;11.420;2023-02-18T13:14:29;100272.19;;;10.84;100.00
8585;BME280;7180;52.742;11.420;2023-02-18T13:16:58;100283.66;;;10.83;100.00
8585;BME280;7180;52.742;11.420;2023-02-18T13:19:38;100278.66;;;10.93;100.00
8585;BME280;7180;52.742;11.420;2023-02-18T13:22:09;100273.75;;;11.01;100.00
8585;BME280;7180;52.742;11.420;2023-02-18T13:24:38;100263.81;;;10.92;100.00
8585;BME280;7180;52.742;11.420;2023-02-18T13:27:23;100263.72;;;10.93;100.00
8585;BME280;7180;52.742;11.420;2023-02-18T13:35:30;100263.19;;;10.88;100.00
8585;BME280;7180;52.742;11.420;2023-02-18T13:40:50;100268.66;;;10.71;100.00
8585;BME280;7180;52.742;11.420;2023-02-18T13:43:31;100280.88;;;10.72;100.00
8585;BME280;7180;52.742;11.420;2023-02-18T13:46:07;100283.97;;;10.79;100.00
8585;BME280;7180;52.742;11.420;2023-02-18T13:49:02;100284.66;;;10.68;100.00
8585;BME280;7180;52.742;11.420;2023-02-18T13:51:44;100291.41;;;10.72;100.00
8585;BME280;7180;52.742;11.420;2023-02-18T13:59:50;100290.56;;;10.72;100.00
8585;BME280;7180;52.742;11.420;2023-02-18T14:18:24;100318.66;;;10.57;100.00
8585;BME280;7180;52.742;11.420;2023-02-18T14:20:51;100346.44;;;10.61;100.00
8585;BME280;7180;52.742;11.420;2023-02-18T14:26:06;100345.47;;;10.76;100.00
8585;BME280;7180;52.742;11.420;2023-02-18T14:31:05;100340.78;;;10.81;100.00
8585;BME280;7180;52.742;11.420;2023-02-18T14:36:35;100343.59;;;10.78;100.00
8585;BME280;7180;52.742;11.420;2023-02-18T14:39:10;100343.59;;;10.78;100.00
8585;BME280;7180;52.742;11.420;2023-02-18T14:42:02;100341.94;;;10.63;100.00
8585;BME280;7180;52.742;11.420;2023-02-18T14:49:51;100362.38;;;10.58;100.00
8585;BME280;7180;52.742;11.420;2023-02-18T14:54:44;100339.22;;;10.51;100.00
8585;BME280;7180;52.742;11.420;2023-02-18T14:57:16;100358.56;;;10.50;100.00
8585;BME280;7180;52.742;11.420;2023-02-18T14:59:44;100370.78;;;10.51;100.00
8585;BME280;7180;52.742;11.420;2023-02-18T15:02:20;100377.59;;;10.53;100.00
8585;BME280;7180;52.742;11.420;2023-02-18T15:04:46;100367.19;;;10.52;100.00
8585;BME280;7180;52.742;11.420;2023-02-18T15:07:12;100381.75;;;10.57;100.00
8585;BME280;7180;52.742;11.420;2023-02-18T15:09:49;100381.53;;;10.60;100.00
8585;BME280;7180;52.742;11.420;2023-02-18T15:12:19;100372.25;;;10.55;100.00
8585;BME280;7180;52.742;11.420;2023-02-18T15:14:46;100371.59;;;10.65;100.00
8585;BME280;7180;52.742;11.420;2023-02-18T15:17:15;100373.56;;;10.62;100.00
8585;BME280;7180;52.742;11.420;2023-02-18T15:19:52;100353.47;;;10.61;100.00
8585;BME280;7180;52.742;11.420;2023-02-18T15:22:21;100367.28;;;10.64;100.00
8585;BME280;7180;52.742;11.420;2023-02-18T15:24:47;100349.41;;;10.69;100.00